Time;durP1;ratioP1;P1;durP2;ratioP2;P2;SDS_P1;SDS_P2;PMS_P1;PMS_P2;Temp;Humidity;BMP_temperature;BMP_pressure;BME280_temperature;BME280_humidity;BME280_pressure;Samples;Min_cycle;Max_cycle;Signal;HPM_P1;HPM_P2
2022/06/14 00:00:53;;;;;;;4.88;3.08;;;;;;;;;;4991279;28;20544;-81
2022/06/14 00:02:23;;;;;;;4.30;2.63;;;;;;;;;;4991755;28;20130;-81
2022/06/14 00:04:50;;;;;;;4.88;2.88;;;;;;;;;;5000483;28;20069;-81
2022/06/14 00:07:16;;;;;;;5.07;3.03;;;;;;;;;;4990997;28;20057;-84
2022/06/14 00:09:42;;;;;;;5.50;3.25;;;;;;;;;;4990474;28;20018;-81
2022/06/14 00:12:08;;;;;;;5.75;3.13;;;;;;;;;;4992244;28;20061;-80
2022/06/14 00:14:34;;;;;;;4.97;2.88;;;;;;;;;;4998892;28;20491;-81
2022/06/14 00:17:00;;;;;;;4.72;2.88;;;;;;;;;;5009336;28;20061;-79
2022/06/14 00:19:26;;;;;;;4.55;2.80;;;;;;;;;;5003834;28;20030;-80
2022/06/14 00:21:52;;;;;;;5.28;3.20;;;;;;;;;;4996210;28;20504;-80
2022/06/14 00:24:18;;;;;;;5.07;2.75;;;;;;;;;;4994074;28;20026;-80
2022/06/14 00:26:44;;;;;;;5.32;2.80;;;;;;;;;;4995122;28;20057;-80
2022/06/14 00:29:10;;;;;;;5.95;3.75;;;;;;;;;;4995201;28;20033;-80
2022/06/14 00:31:36;;;;;;;5.55;3.00;;;;;;;;;;4994043;28;20037;-81
2022/06/14 00:34:02;;;;;;;5.10;3.10;;;;;;;;;;4993162;28;20033;-80
2022/06/14 00:36:30;;;;;;;5.80;2.92;;;;;;;;;;4992650;28;20445;-80
2022/06/14 00:38:58;;;;;;;5.65;3.28;;;;;;;;;;4993685;28;20092;-78
2022/06/14 00:41:36;;;;;;;7.82;3.47;;;;;;;;;;4993305;28;20027;-79
2022/06/14 00:44:03;;;;;;;6.43;3.13;;;;;;;;;;4997890;28;20475;-79
2022/06/14 00:46:40;;;;;;;5.80;3.15;;;;;;;;;;5005613;28;20533;-79
2022/06/14 00:49:11;;;;;;;5.38;2.70;;;;;;;;;;4994145;28;20031;-81
2022/06/14 00:51:44;;;;;;;6.65;3.08;;;;;;;;;;4992896;28;20122;-80
2022/06/14 00:54:25;;;;;;;4.85;3.00;;;;;;;;;;4997543;28;20459;-81
2022/06/14 00:56:56;;;;;;;6.00;3.10;;;;;;;;;;4992759;28;20397;-81
2022/06/14 00:59:35;;;;;;;5.57;3.05;;;;;;;;;;4994419;28;20019;-80
2022/06/14 01:02:16;;;;;;;6.22;2.75;;;;;;;;;;4995179;28;20244;-80
2022/06/14 01:04:42;;;;;;;5.63;3.20;;;;;;;;;;5011041;28;20030;-80
2022/06/14 01:07:17;;;;;;;6.70;2.90;;;;;;;;;;4994174;28;20030;-80
2022/06/14 01:09:46;;;;;;;5.80;3.10;;;;;;;;;;4992956;28;20032;-81
2022/06/14 01:12:14;;;;;;;5.25;2.97;;;;;;;;;;4992648;28;20485;-80
2022/06/14 01:14:55;;;;;;;5.78;3.03;;;;;;;;;;4992969;28;20034;-81
2022/06/14 01:17:21;;;;;;;6.30;3.47;;;;;;;;;;4993685;28;20034;-80
2022/06/14 01:19:47;;;;;;;6.50;2.90;;;;;;;;;;4991880;28;20015;-80
2022/06/14 01:22:13;;;;;;;6.60;3.05;;;;;;;;;;4992102;28;20157;-80
2022/06/14 01:24:40;;;;;;;4.90;3.53;;;;;;;;;;4992779;28;20105;-81
2022/06/14 01:27:08;;;;;;;5.70;3.30;;;;;;;;;;4993178;28;20039;-80
2022/06/14 01:29:36;;;;;;;5.47;3.03;;;;;;;;;;4992786;28;20076;-80
2022/06/14 01:32:04;;;;;;;5.85;3.20;;;;;;;;;;5003606;28;20026;-80
2022/06/14 01:34:31;;;;;;;4.60;2.90;;;;;;;;;;5009700;28;20034;-79
2022/06/14 01:37:00;;;;;;;5.22;2.92;;;;;;;;;;5005626;28;20030;-80
2022/06/14 01:39:26;;;;;;;5.68;3.40;;;;;;;;;;4991912;28;20390;-80
2022/06/14 01:41:57;;;;;;;5.57;3.10;;;;;;;;;;4993327;28;20453;-81
2022/06/14 01:44:31;;;;;;;7.15;4.18;;;;;;;;;;4992702;28;20109;-81
2022/06/14 01:47:09;;;;;;;5.90;2.88;;;;;;;;;;4992884;28;20042;-81
2022/06/14 01:52:46;;;;;;;5.43;2.90;;;;;;;;;;4985020;28;20036;-80
2022/06/14 01:55:15;;;;;;;5.28;3.30;;;;;;;;;;4991884;28;20116;-80
2022/06/14 01:57:46;;;;;;;7.15;3.40;;;;;;;;;;4991878;28;20045;-80
2022/06/14 02:00:28;;;;;;;6.65;3.22;;;;;;;;;;4986577;28;20057;-81
2022/06/14 02:05:52;;;;;;;5.82;3.00;;;;;;;;;;4994444;28;20138;-80
2022/06/14 02:08:20;;;;;;;6.10;3.20;;;;;;;;;;4994834;28;20561;-80
2022/06/14 02:10:46;;;;;;;6.50;3.25;;;;;;;;;;4994892;28;20041;-80
2022/06/14 02:13:37;;;;;;;5.20;3.13;;;;;;;;;;4995269;28;20031;-80
2022/06/14 02:16:08;;;;;;;6.63;3.30;;;;;;;;;;4990712;28;20444;-80
2022/06/14 02:18:39;;;;;;;5.97;3.55;;;;;;;;;;4994944;28;20026;-80
2022/06/14 02:21:08;;;;;;;6.53;3.47;;;;;;;;;;4999410;28;20037;-80
2022/06/14 02:23:54;;;;;;;5.25;2.85;;;;;;;;;;5000861;28;20069;-80
2022/06/14 02:26:22;;;;;;;5.70;2.88;;;;;;;;;;4975408;28;20058;-80
2022/06/14 02:28:52;;;;;;;6.10;3.38;;;;;;;;;;4986698;28;20069;-80
2022/06/14 02:31:24;;;;;;;6.20;3.75;;;;;;;;;;4994826;28;20023;-80
2022/06/14 02:33:57;;;;;;;5.88;3.97;;;;;;;;;;4996086;28;20057;-80
2022/06/14 02:36:41;;;;;;;7.88;3.53;;;;;;;;;;5013988;28;20025;-80
2022/06/14 02:39:12;;;;;;;6.22;3.20;;;;;;;;;;4994141;28;20027;-80
2022/06/14 02:41:44;;;;;;;5.53;3.22;;;;;;;;;;4994865;28;20055;-80
2022/06/14 02:44:13;;;;;;;4.97;3.60;;;;;;;;;;4988877;28;20066;-79
2022/06/14 02:46:42;;;;;;;7.53;3.58;;;;;;;;;;4993058;28;20049;-80
2022/06/14 02:49:21;;;;;;;5.65;3.80;;;;;;;;;;4993045;28;20489;-80
2022/06/14 02:51:54;;;;;;;7.13;3.63;;;;;;;;;;4991280;28;20026;-80
2022/06/14 02:54:20;;;;;;;6.60;3.33;;;;;;;;;;5006977;28;20038;-81
2022/06/14 02:56:49;;;;;;;5.60;3.53;;;;;;;;;;4994009;28;20044;-79
2022/06/14 02:59:19;;;;;;;5.47;3.45;;;;;;;;;;4993913;28;20030;-79
2022/06/14 03:01:58;;;;;;;10.55;3.85;;;;;;;;;;4992231;28;20481;-80
2022/06/14 03:04:28;;;;;;;8.23;4.43;;;;;;;;;;4990724;28;20022;-80
2022/06/14 03:06:58;;;;;;;6.70;3.75;;;;;;;;;;4994007;28;20485;-80
2022/06/14 03:09:27;;;;;;;7.78;3.90;;;;;;;;;;4993681;28;20053;-80
2022/06/14 03:11:53;;;;;;;5.80;3.70;;;;;;;;;;5001864;28;20030;-80
2022/06/14 03:14:38;;;;;;;5.70;3.67;;;;;;;;;;4997529;28;20369;-80
2022/06/14 03:17:04;;;;;;;6.93;3.90;;;;;;;;;;4995588;28;20125;-80
2022/06/14 03:19:43;;;;;;;6.22;3.47;;;;;;;;;;5013099;28;20065;-79
2022/06/14 03:22:21;;;;;;;5.93;3.50;;;;;;;;;;5002559;28;20405;-80
2022/06/14 03:24:55;;;;;;;8.10;3.80;;;;;;;;;;4999768;28;20026;-80
2022/06/14 03:27:41;;;;;;;6.40;3.78;;;;;;;;;;4995521;28;20027;-79
2022/06/14 03:30:28;;;;;;;7.32;3.80;;;;;;;;;;5000513;28;20473;-78
2022/06/14 03:33:13;;;;;;;6.90;3.58;;;;;;;;;;4993895;28;20034;-79
2022/06/14 03:35:41;;;;;;;6.00;3.47;;;;;;;;;;4991547;28;20494;-79
2022/06/14 03:38:11;;;;;;;5.65;3.53;;;;;;;;;;5005728;28;20092;-80
2022/06/14 03:40:37;;;;;;;5.43;3.33;;;;;;;;;;4994402;28;20026;-79
2022/06/14 03:43:03;;;;;;;6.35;3.33;;;;;;;;;;4993288;28;20033;-80
2022/06/14 03:45:39;;;;;;;7.47;3.97;;;;;;;;;;4988670;28;20023;-80
2022/06/14 03:48:06;;;;;;;6.38;3.70;;;;;;;;;;5000047;28;20022;-80
2022/06/14 03:50:39;;;;;;;8.18;4.05;;;;;;;;;;5001232;28;20034;-80
2022/06/14 03:53:11;;;;;;;8.23;4.25;;;;;;;;;;5011087;28;20396;-80
2022/06/14 03:55:37;;;;;;;;;;;;;;;;;;4995051;28;20042;-80
2022/06/14 03:58:18;;;;;;;6.20;3.58;;;;;;;;;;4992329;28;20393;-80
2022/06/14 04:00:53;;;;;;;6.38;3.92;;;;;;;;;;4999915;28;20426;-80
2022/06/14 04:03:38;;;;;;;5.88;3.60;;;;;;;;;;4992116;28;20489;-80
2022/06/14 04:06:20;;;;;;;7.55;3.67;;;;;;;;;;4992931;28;20086;-80
2022/06/14 04:08:58;;;;;;;7.57;3.90;;;;;;;;;;4993429;28;20108;-80
2022/06/14 04:11:35;;;;;;;6.82;3.80;;;;;;;;;;4991199;28;20041;-81
2022/06/14 04:14:06;;;;;;;6.35;3.65;;;;;;;;;;4991037;28;20031;-80
2022/06/14 04:16:53;;;;;;;5.97;3.90;;;;;;;;;;4985788;28;20399;-80
2022/06/14 04:19:43;;;;;;;13.50;4.47;;;;;;;;;;4993358;28;20019;-80
2022/06/14 04:22:15;;;;;;;8.70;4.20;;;;;;;;;;4990026;28;20129;-79
2022/06/14 04:24:47;;;;;;;6.00;3.70;;;;;;;;;;4995984;28;20022;-80
2022/06/14 04:27:16;;;;;;;6.47;4.28;;;;;;;;;;4998612;28;20073;-80
2022/06/14 04:29:49;;;;;;;6.85;4.00;;;;;;;;;;4997577;28;20023;-80
2022/06/14 04:32:21;;;;;;;9.02;4.05;;;;;;;;;;5000838;28;20022;-80
2022/06/14 04:34:58;;;;;;;5.47;3.45;;;;;;;;;;4992868;28;20109;-80
2022/06/14 04:37:27;;;;;;;6.03;3.60;;;;;;;;;;4995800;28;20032;-80
2022/06/14 04:39:58;;;;;;;6.63;4.10;;;;;;;;;;4999739;28;20066;-80
2022/06/14 04:42:29;;;;;;;6.57;3.80;;;;;;;;;;4991062;28;20398;-78
2022/06/14 04:44:56;;;;;;;5.93;3.90;;;;;;;;;;4990709;28;20026;-80
2022/06/14 04:47:29;;;;;;;6.90;3.70;;;;;;;;;;4995331;28;20023;-79
2022/06/14 04:50:14;;;;;;;8.75;3.90;;;;;;;;;;4992523;28;20520;-80
2022/06/14 04:52:43;;;;;;;7.40;4.05;;;;;;;;;;5009841;28;20076;-80
2022/06/14 04:55:16;;;;;;;8.35;3.58;;;;;;;;;;5002089;28;20417;-80
2022/06/14 04:57:56;;;;;;;8.68;3.83;;;;;;;;;;5000525;28;20030;-79
2022/06/14 05:00:24;;;;;;;5.55;3.22;;;;;;;;;;4990195;28;20401;-80
2022/06/14 05:02:59;;;;;;;5.35;3.15;;;;;;;;;;4999991;28;20026;-79
2022/06/14 05:05:25;;;;;;;6.63;3.83;;;;;;;;;;5003616;28;20053;-79
2022/06/14 05:08:07;;;;;;;6.25;3.33;;;;;;;;;;5006152;28;20476;-79
2022/06/14 05:10:45;;;;;;;6.65;3.13;;;;;;;;;;4995012;28;20096;-81
2022/06/14 05:13:30;;;;;;;5.80;3.15;;;;;;;;;;4991058;28;21209;-81
2022/06/14 05:16:02;;;;;;;9.98;3.90;;;;;;;;;;4974508;28;20486;-79
2022/06/14 05:18:34;;;;;;;7.22;3.38;;;;;;;;;;4977616;28;20031;-80
2022/06/14 05:21:04;;;;;;;8.73;3.20;;;;;;;;;;4993799;28;20019;-80
2022/06/14 05:23:40;;;;;;;8.93;3.28;;;;;;;;;;4995462;28;20520;-80
2022/06/14 05:26:24;;;;;;;7.25;3.97;;;;;;;;;;4976014;28;20105;-80
2022/06/14 05:29:09;;;;;;;5.25;3.35;;;;;;;;;;4993117;28;20034;-80
2022/06/14 05:31:38;;;;;;;7.22;3.40;;;;;;;;;;4994645;28;20030;-80
2022/06/14 05:34:08;;;;;;;6.45;3.20;;;;;;;;;;4995418;28;20022;-80
2022/06/14 05:36:43;;;;;;;6.18;3.25;;;;;;;;;;4994875;28;20026;-80
2022/06/14 05:39:12;;;;;;;9.85;4.00;;;;;;;;;;4991720;28;20030;-79
2022/06/14 05:41:44;;;;;;;6.93;3.47;;;;;;;;;;4993194;28;20113;-79
2022/06/14 05:44:14;;;;;;;7.28;3.40;;;;;;;;;;4995145;28;20030;-82
2022/06/14 05:46:43;;;;;;;5.40;3.03;;;;;;;;;;4995269;28;20405;-79
2022/06/14 05:49:19;;;;;;;8.02;3.15;;;;;;;;;;4989170;28;20045;-81
2022/06/14 05:51:51;;;;;;;5.38;3.20;;;;;;;;;;4988103;28;20061;-79
2022/06/14 05:54:26;;;;;;;5.57;3.05;;;;;;;;;;4992563;28;20069;-79
2022/06/14 05:57:10;;;;;;;9.13;2.97;;;;;;;;;;4992965;28;20161;-80
2022/06/14 05:59:40;;;;;;;5.95;3.20;;;;;;;;;;4990777;28;20031;-79
2022/06/14 06:02:19;;;;;;;5.70;3.40;;;;;;;;;;4977613;28;20050;-80
2022/06/14 06:04:51;;;;;;;7.45;3.10;;;;;;;;;;4975358;28;20645;-79
2022/06/14 06:07:20;;;;;;;6.72;3.80;;;;;;;;;;5007165;28;20034;-79
2022/06/14 06:09:58;;;;;;;9.23;3.80;;;;;;;;;;4993163;28;20034;-80
2022/06/14 06:12:28;;;;;;;7.03;3.50;;;;;;;;;;4990204;28;20030;-79
2022/06/14 06:15:03;;;;;;;6.65;3.40;;;;;;;;;;4994719;28;20018;-79
2022/06/14 06:17:33;;;;;;;5.70;3.25;;;;;;;;;;4994947;28;20038;-82
2022/06/14 06:20:06;;;;;;;7.28;3.20;;;;;;;;;;4996668;28;20057;-80
2022/06/14 06:22:39;;;;;;;5.82;3.35;;;;;;;;;;4994511;28;20033;-80
2022/06/14 06:25:08;;;;;;;6.97;3.50;;;;;;;;;;4995534;28;20045;-81
2022/06/14 06:27:38;;;;;;;5.43;3.58;;;;;;;;;;5001268;28;20064;-82
2022/06/14 06:30:05;;;;;;;7.70;3.90;;;;;;;;;;5014998;28;20026;-81
2022/06/14 06:32:31;;;;;;;5.78;3.58;;;;;;;;;;4994052;28;20507;-82
2022/06/14 06:34:59;;;;;;;5.85;3.47;;;;;;;;;;4996736;28;20030;-79
2022/06/14 06:37:40;;;;;;;7.88;3.10;;;;;;;;;;4996384;28;20035;-78
2022/06/14 06:40:16;;;;;;;6.40;3.65;;;;;;;;;;4993691;28;20505;-79
2022/06/14 06:42:42;;;;;;;6.78;3.38;;;;;;;;;;4992537;28;20105;-79
2022/06/14 06:45:08;;;;;;;5.88;3.33;;;;;;;;;;4993827;28;20049;-78
2022/06/14 06:47:34;;;;;;;6.25;3.55;;;;;;;;;;4993891;28;20026;-80
2022/06/14 06:50:00;;;;;;;8.07;3.30;;;;;;;;;;4993450;28;20032;-80
2022/06/14 06:52:34;;;;;;;6.57;3.40;;;;;;;;;;4992244;28;20027;-78
2022/06/14 06:55:02;;;;;;;6.47;3.17;;;;;;;;;;4992669;28;20061;-82
2022/06/14 06:57:29;;;;;;;5.70;3.20;;;;;;;;;;4993199;28;20371;-79
2022/06/14 06:59:57;;;;;;;6.88;3.13;;;;;;;;;;4993580;28;20031;-80
2022/06/14 07:02:29;;;;;;;5.97;3.25;;;;;;;;;;4992877;28;20027;-78
2022/06/14 07:05:06;;;;;;;5.83;3.17;;;;;;;;;;4992256;28;20031;-79
2022/06/14 07:07:34;;;;;;;6.00;3.05;;;;;;;;;;4992712;28;20261;-80
2022/06/14 07:10:19;;;;;;;5.78;3.33;;;;;;;;;;4992879;28;20437;-79
2022/06/14 07:12:45;;;;;;;6.13;2.75;;;;;;;;;;4992354;28;20030;-79
2022/06/14 07:15:16;;;;;;;5.97;2.67;;;;;;;;;;4992570;28;20026;-78
2022/06/14 07:17:46;;;;;;;5.95;3.35;;;;;;;;;;4993103;28;20114;-78
2022/06/14 07:20:31;;;;;;;6.53;3.15;;;;;;;;;;4992485;28;20081;-80
2022/06/14 07:23:02;;;;;;;5.15;2.72;;;;;;;;;;4991698;28;20022;-79
2022/06/14 07:25:33;;;;;;;5.80;2.80;;;;;;;;;;4992979;28;20022;-80
2022/06/14 07:28:02;;;;;;;5.05;3.05;;;;;;;;;;4992615;28;20030;-81
2022/06/14 07:30:47;;;;;;;6.75;3.05;;;;;;;;;;4992605;28;20035;-80
2022/06/14 07:33:13;;;;;;;8.75;2.80;;;;;;;;;;4989908;28;20041;-79
2022/06/14 07:35:57;;;;;;;5.60;3.45;;;;;;;;;;4991714;28;20050;-79
2022/06/14 07:38:26;;;;;;;7.78;3.38;;;;;;;;;;4991479;28;20031;-79
2022/06/14 07:40:52;;;;;;;6.50;3.10;;;;;;;;;;4991880;28;20113;-80
2022/06/14 07:43:25;;;;;;;5.90;3.03;;;;;;;;;;4992473;28;20109;-80
2022/06/14 07:45:51;;;;;;;7.80;2.72;;;;;;;;;;4992506;28;20025;-79
2022/06/14 07:48:32;;;;;;;7.03;2.90;;;;;;;;;;4991146;28;20092;-80
2022/06/14 07:51:02;;;;;;;5.95;2.95;;;;;;;;;;4992242;28;20039;-79
2022/06/14 07:53:34;;;;;;;7.32;3.03;;;;;;;;;;4992415;28;20049;-79
2022/06/14 07:56:05;;;;;;;5.37;2.90;;;;;;;;;;4989880;28;20047;-80
2022/06/14 07:58:57;;;;;;;7.82;3.65;;;;;;;;;;4991812;28;20320;-79
2022/06/14 08:01:25;;;;;;;5.60;3.17;;;;;;;;;;4910753;29;20042;-80
2022/06/14 08:04:09;;;;;;;5.40;3.03;;;;;;;;;;4912198;29;20044;-79
2022/06/14 08:06:35;;;;;;;5.57;2.78;;;;;;;;;;4894868;29;20040;-79
2022/06/14 08:09:07;;;;;;;6.82;2.80;;;;;;;;;;4893890;29;20171;-79
2022/06/14 08:11:48;;;;;;;7.03;3.10;;;;;;;;;;4904392;29;20096;-80
2022/06/14 08:14:19;;;;;;;6.15;2.90;;;;;;;;;;4912975;29;20035;-79
2022/06/14 08:16:46;;;;;;;6.38;2.58;;;;;;;;;;4913092;29;20052;-80
2022/06/14 08:19:18;;;;;;;6.00;2.97;;;;;;;;;;4912826;29;20055;-79
2022/06/14 08:21:46;;;;;;;5.93;2.20;;;;;;;;;;4912535;29;20032;-79
2022/06/14 08:24:17;;;;;;;6.93;2.70;;;;;;;;;;4914177;29;20087;-80
2022/06/14 08:26:47;;;;;;;5.82;2.60;;;;;;;;;;4914432;29;20027;-80
2022/06/14 08:29:13;;;;;;;6.25;3.20;;;;;;;;;;4913445;29;20115;-80
2022/06/14 08:31:55;;;;;;;7.28;3.00;;;;;;;;;;4910895;29;20075;-80
2022/06/14 08:34:30;;;;;;;6.80;3.33;;;;;;;;;;4913207;29;20028;-79
2022/06/14 08:36:59;;;;;;;8.27;2.67;;;;;;;;;;4916379;29;20111;-78
2022/06/14 08:39:36;;;;;;;6.20;2.83;;;;;;;;;;4993956;28;20054;-78
2022/06/14 08:42:40;;;;;;;6.50;2.90;;;;;;;;;;4995120;28;20489;-82
2022/06/14 08:45:20;;;;;;;6.38;2.60;;;;;;;;;;4973889;28;20034;-79
2022/06/14 08:47:49;;;;;;;4.57;2.10;;;;;;;;;;4975025;28;20042;-78
2022/06/14 08:50:21;;;;;;;6.38;2.45;;;;;;;;;;4974599;28;20523;-80
2022/06/14 08:53:05;;;;;;;4.93;2.20;;;;;;;;;;4973629;28;20098;-79
2022/06/14 08:55:57;;;;;;;6.20;2.10;;;;;;;;;;4973774;28;20050;-82
2022/06/14 08:58:23;;;;;;;4.27;2.30;;;;;;;;;;4952756;28;20049;-81
2022/06/14 09:00:49;;;;;;;4.63;2.22;;;;;;;;;;4975104;28;20117;-80
2022/06/14 09:03:18;;;;;;;4.50;2.22;;;;;;;;;;4973202;28;20053;-80
2022/06/14 09:06:02;;;;;;;7.10;2.30;;;;;;;;;;4974929;28;20075;-80
2022/06/14 09:08:28;;;;;;;4.53;2.40;;;;;;;;;;4974241;28;20403;-80
2022/06/14 09:10:54;;;;;;;6.22;2.50;;;;;;;;;;4972170;28;20110;-80
2022/06/14 09:13:23;;;;;;;6.13;2.53;;;;;;;;;;4974695;28;20031;-79
2022/06/14 09:16:04;;;;;;;4.78;2.60;;;;;;;;;;4984956;28;20046;-81
2022/06/14 09:18:49;;;;;;;6.32;2.55;;;;;;;;;;4994716;28;20065;-80
2022/06/14 09:21:34;;;;;;;4.35;2.47;;;;;;;;;;4983289;28;20222;-80
2022/06/14 09:24:32;;;;;;;8.02;2.63;;;;;;;;;;4994924;28;20023;-80
2022/06/14 09:27:17;;;;;;;5.88;2.75;;;;;;;;;;4972360;28;20049;-79
2022/06/14 09:29:55;;;;;;;5.63;2.50;;;;;;;;;;4989821;28;20025;-80
2022/06/14 09:33:09;;;;;;;5.13;2.55;;;;;;;;;;4994404;28;20019;-82
2022/06/14 09:35:41;;;;;;;5.20;2.50;;;;;;;;;;4976319;28;20343;-80
2022/06/14 09:38:39;;;;;;;7.38;2.80;;;;;;;;;;4988630;28;20402;-79
2022/06/14 09:41:14;;;;;;;5.15;2.67;;;;;;;;;;4973553;28;20039;-80
2022/06/14 09:43:40;;;;;;;4.57;2.55;;;;;;;;;;4974183;28;20058;-80
2022/06/14 09:46:06;;;;;;;5.18;2.58;;;;;;;;;;4973999;28;20508;-77
2022/06/14 09:48:50;;;;;;;5.15;2.83;;;;;;;;;;4957028;28;20392;-81
2022/06/14 09:51:28;;;;;;;5.45;2.88;;;;;;;;;;4973671;28;20042;-80
2022/06/14 09:53:54;;;;;;;5.95;2.47;;;;;;;;;;4975498;28;20050;-83
2022/06/14 09:56:20;;;;;;;5.45;2.60;;;;;;;;;;4977662;28;20039;-80
2022/06/14 09:59:24;;;;;;;5.78;2.45;;;;;;;;;;4979993;28;20039;-80
2022/06/14 10:01:59;;;;;;;4.97;3.05;;;;;;;;;;4924271;29;20107;-82
2022/06/14 10:04:43;;;;;;;5.80;2.47;;;;;;;;;;4923354;29;20061;-81
2022/06/14 10:07:20;;;;;;;7.47;2.50;;;;;;;;;;4959316;28;20047;-83
2022/06/14 10:09:58;;;;;;;4.82;2.60;;;;;;;;;;4980572;28;20190;-83
2022/06/14 10:12:26;;;;;;;5.72;2.88;;;;;;;;;;4978649;28;20098;-82
2022/06/14 10:15:05;;;;;;;7.05;2.50;;;;;;;;;;4978598;28;20027;-84
2022/06/14 10:17:38;;;;;;;5.45;2.75;;;;;;;;;;4996307;28;20502;-83
2022/06/14 10:20:09;;;;;;;6.40;2.72;;;;;;;;;;5001282;28;20033;-84
2022/06/14 10:22:35;;;;;;;5.10;2.58;;;;;;;;;;5000667;28;20014;-82
2022/06/14 10:25:13;;;;;;;7.38;2.70;;;;;;;;;;4998592;28;20045;-83
2022/06/14 10:30:32;;;;;;;7.15;2.70;;;;;;;;;;4981358;28;20425;-81
2022/06/14 10:33:11;;;;;;;5.47;2.95;;;;;;;;;;4991496;28;20041;-81
2022/06/14 10:35:55;;;;;;;5.50;3.28;;;;;;;;;;5002105;28;20490;-82
2022/06/14 10:38:30;;;;;;;5.88;2.20;;;;;;;;;;5002126;28;20026;-80
2022/06/14 10:41:16;;;;;;;7.82;2.95;;;;;;;;;;5000948;28;20026;-80
2022/06/14 10:44:01;;;;;;;4.75;2.40;;;;;;;;;;4997667;28;20072;-80
2022/06/14 10:46:28;;;;;;;5.20;2.92;;;;;;;;;;5002696;28;20023;-81
2022/06/14 10:49:13;;;;;;;6.35;2.40;;;;;;;;;;5001766;28;20398;-81
2022/06/14 10:51:58;;;;;;;5.53;2.60;;;;;;;;;;5002705;28;20028;-81
2022/06/14 10:54:29;;;;;;;5.32;2.85;;;;;;;;;;5003011;28;20061;-80
2022/06/14 10:57:11;;;;;;;6.13;2.88;;;;;;;;;;5001846;28;20056;-81
2022/06/14 10:59:37;;;;;;;4.45;2.38;;;;;;;;;;5004460;28;20022;-79
2022/06/14 11:02:23;;;;;;;5.03;2.72;;;;;;;;;;5002081;28;20038;-80
2022/06/14 11:04:58;;;;;;;4.88;2.50;;;;;;;;;;4991277;28;20052;-80
2022/06/14 11:07:43;;;;;;;5.15;2.50;;;;;;;;;;5001029;28;20034;-81
2022/06/14 11:10:19;;;;;;;4.32;2.38;;;;;;;;;;5002316;28;20058;-81
2022/06/14 11:12:45;;;;;;;5.57;2.47;;;;;;;;;;5006434;28;20018;-79
2022/06/14 11:15:16;;;;;;;6.40;3.08;;;;;;;;;;5004138;28;20039;-81
2022/06/14 11:17:59;;;;;;;4.93;2.75;;;;;;;;;;5004267;28;20080;-80
2022/06/14 11:20:25;;;;;;;5.18;2.90;;;;;;;;;;5006129;28;20086;-80
2022/06/14 11:22:59;;;;;;;5.13;2.47;;;;;;;;;;5007000;28;20029;-79
2022/06/14 11:25:44;;;;;;;6.32;2.60;;;;;;;;;;5005135;28;20480;-82
2022/06/14 11:28:13;;;;;;;6.45;2.58;;;;;;;;;;5001157;28;20027;-81
2022/06/14 11:30:53;;;;;;;5.35;2.50;;;;;;;;;;5000267;28;20034;-81
2022/06/14 11:33:29;;;;;;;5.00;2.30;;;;;;;;;;4998969;28;20565;-81
2022/06/14 11:35:55;;;;;;;6.13;2.50;;;;;;;;;;4999850;28;20078;-81
2022/06/14 11:38:41;;;;;;;5.50;2.50;;;;;;;;;;5000671;28;20022;-79
2022/06/14 11:41:08;;;;;;;6.20;2.85;;;;;;;;;;4982780;28;20022;-82
2022/06/14 11:43:37;;;;;;;5.53;2.60;;;;;;;;;;4991977;28;20058;-80
2022/06/14 11:46:19;;;;;;;4.30;2.40;;;;;;;;;;5000357;28;20026;-81
2022/06/14 11:49:01;;;;;;;5.15;2.90;;;;;;;;;;5000472;28;20422;-82
2022/06/14 11:51:39;;;;;;;6.20;3.25;;;;;;;;;;4999491;28;20030;-81
2022/06/14 11:54:19;;;;;;;4.68;2.20;;;;;;;;;;4999001;28;20073;-80
2022/06/14 11:56:51;;;;;;;5.65;2.75;;;;;;;;;;4999671;28;20029;-80
2022/06/14 11:59:25;;;;;;;6.72;2.88;;;;;;;;;;5000252;28;20022;-80
2022/06/14 12:02:09;;;;;;;7.85;2.95;;;;;;;;;;4999886;28;20034;-81
2022/06/14 12:04:53;;;;;;;7.20;2.97;;;;;;;;;;5004573;28;20046;-81
2022/06/14 12:07:26;;;;;;;5.28;2.60;;;;;;;;;;5003073;28;20026;-81
2022/06/14 12:10:11;;;;;;;6.28;2.70;;;;;;;;;;5002789;28;20037;-81
2022/06/14 12:12:56;;;;;;;5.85;2.47;;;;;;;;;;5005368;28;20068;-80
2022/06/14 12:15:37;;;;;;;5.70;2.50;;;;;;;;;;5003070;28;20030;-79
2022/06/14 12:18:07;;;;;;;4.97;2.75;;;;;;;;;;5004225;28;20030;-82
2022/06/14 12:20:36;;;;;;;5.65;2.58;;;;;;;;;;5000525;28;20018;-81
2022/06/14 12:23:13;;;;;;;5.68;2.50;;;;;;;;;;5001781;28;20030;-81
2022/06/14 12:28:54;;;;;;;5.65;2.80;;;;;;;;;;5003214;28;20037;-82
2022/06/14 12:31:29;;;;;;;5.43;2.60;;;;;;;;;;5001319;28;20027;-82
2022/06/14 12:33:59;;;;;;;5.35;2.17;;;;;;;;;;5003412;28;20497;-83
2022/06/14 12:36:45;;;;;;;5.32;2.53;;;;;;;;;;5002059;28;20089;-82
2022/06/14 12:39:14;;;;;;;4.72;2.38;;;;;;;;;;5002694;28;20026;-80
2022/06/14 12:41:46;;;;;;;5.57;2.83;;;;;;;;;;5001449;28;20026;-81
2022/06/14 12:44:21;;;;;;;5.10;2.80;;;;;;;;;;5001730;28;20090;-81
2022/06/14 12:46:48;;;;;;;5.35;2.30;;;;;;;;;;5002736;28;20105;-82
2022/06/14 12:49:17;;;;;;;7.13;2.45;;;;;;;;;;5002109;28;20034;-81
2022/06/14 12:51:43;;;;;;;7.93;2.72;;;;;;;;;;5000925;28;20068;-81
2022/06/14 12:54:25;;;;;;;6.40;2.42;;;;;;;;;;5009618;28;20417;-81
2022/06/14 12:56:54;;;;;;;4.25;2.63;;;;;;;;;;5003449;28;20030;-79
2022/06/14 12:59:33;;;;;;;5.75;2.42;;;;;;;;;;5007356;28;20050;-82
2022/06/14 13:02:18;;;;;;;4.60;2.55;;;;;;;;;;5001434;28;20027;-81
2022/06/14 13:04:47;;;;;;;5.30;2.38;;;;;;;;;;5001596;28;20026;-80
2022/06/14 13:07:13;;;;;;;4.95;2.40;;;;;;;;;;5002315;28;20035;-80
2022/06/14 13:09:49;;;;;;;4.63;2.25;;;;;;;;;;5001421;28;20482;-81
2022/06/14 13:12:15;;;;;;;5.75;2.60;;;;;;;;;;5002611;28;20026;-80
2022/06/14 13:14:47;;;;;;;4.75;2.42;;;;;;;;;;5001675;28;20034;-83
2022/06/14 13:17:22;;;;;;;5.20;2.50;;;;;;;;;;5000726;28;20034;-81
2022/06/14 13:19:53;;;;;;;6.00;2.63;;;;;;;;;;5001796;28;20034;-81
2022/06/14 13:22:26;;;;;;;4.97;2.70;;;;;;;;;;5001804;28;20022;-81
2022/06/14 13:25:11;;;;;;;6.72;2.88;;;;;;;;;;5001547;28;20323;-81
2022/06/14 13:27:50;;;;;;;6.93;2.65;;;;;;;;;;5004076;28;20143;-82
2022/06/14 13:30:22;;;;;;;4.57;2.40;;;;;;;;;;5000836;28;20037;-82
2022/06/14 13:33:00;;;;;;;4.95;2.40;;;;;;;;;;5000008;28;20030;-81
2022/06/14 13:35:32;;;;;;;4.95;2.50;;;;;;;;;;5001491;28;20442;-82
2022/06/14 13:37:58;;;;;;;4.70;2.50;;;;;;;;;;5000077;28;20164;-81
2022/06/14 13:40:33;;;;;;;6.57;2.70;;;;;;;;;;4999909;28;20075;-80
2022/06/14 13:43:13;;;;;;;5.15;2.60;;;;;;;;;;5002767;28;20553;-81
2022/06/14 13:45:45;;;;;;;5.10;2.40;;;;;;;;;;5001128;28;20030;-81
2022/06/14 13:48:17;;;;;;;5.93;2.92;;;;;;;;;;4993217;28;20031;-80
2022/06/14 13:50:45;;;;;;;4.78;2.70;;;;;;;;;;4999460;28;20085;-80
2022/06/14 13:53:31;;;;;;;4.70;2.90;;;;;;;;;;4988178;28;20498;-82
2022/06/14 13:55:57;;;;;;;7.00;2.65;;;;;;;;;;4998348;28;20073;-82
2022/06/14 13:58:41;;;;;;;5.88;2.50;;;;;;;;;;5001213;28;20570;-82
2022/06/14 14:01:07;;;;;;;4.78;2.80;;;;;;;;;;4999510;28;20022;-82
2022/06/14 14:03:42;;;;;;;5.85;2.65;;;;;;;;;;5000597;28;20485;-81
2022/06/14 14:06:18;;;;;;;5.18;2.50;;;;;;;;;;4999824;28;20061;-81
2022/06/14 14:08:53;;;;;;;5.05;2.50;;;;;;;;;;4991831;28;20027;-81
2022/06/14 14:11:19;;;;;;;5.40;3.05;;;;;;;;;;5000097;28;20027;-81
2022/06/14 14:13:52;;;;;;;5.97;2.55;;;;;;;;;;4999626;28;20639;-81
2022/06/14 14:16:22;;;;;;;8.20;2.88;;;;;;;;;;5000208;28;20162;-82
2022/06/14 14:19:06;;;;;;;5.57;2.75;;;;;;;;;;4998783;28;20026;-81
2022/06/14 14:21:46;;;;;;;5.72;2.70;;;;;;;;;;4999975;28;20029;-80
2022/06/14 14:24:25;;;;;;;5.95;2.72;;;;;;;;;;5000730;28;20114;-81
2022/06/14 14:27:12;;;;;;;4.75;2.60;;;;;;;;;;4999323;28;20029;-81
2022/06/14 14:29:45;;;;;;;5.50;2.58;;;;;;;;;;4999897;28;20026;-81
2022/06/14 14:32:17;;;;;;;5.32;2.65;;;;;;;;;;4999833;28;20019;-81
2022/06/14 14:34:56;;;;;;;7.30;2.90;;;;;;;;;;4999959;28;20061;-81
2022/06/14 14:37:29;;;;;;;5.40;2.72;;;;;;;;;;5000060;28;20030;-81
2022/06/14 14:39:58;;;;;;;4.50;2.55;;;;;;;;;;5012534;28;20030;-81
2022/06/14 14:42:27;;;;;;;5.97;3.17;;;;;;;;;;4998861;28;20088;-81
2022/06/14 14:45:11;;;;;;;6.13;2.92;;;;;;;;;;4999884;28;20029;-81
2022/06/14 14:47:43;;;;;;;5.53;2.65;;;;;;;;;;4990144;28;20032;-80
2022/06/14 14:50:17;;;;;;;6.30;2.70;;;;;;;;;;5015146;28;20018;-80
2022/06/14 14:53:00;;;;;;;6.93;2.80;;;;;;;;;;4998744;28;20117;-81
2022/06/14 14:55:36;;;;;;;4.88;2.53;;;;;;;;;;4999807;28;20043;-82
2022/06/14 14:58:21;;;;;;;5.47;2.70;;;;;;;;;;4998325;28;20043;-82
2022/06/14 15:06:43;;;;;;;5.50;2.90;;;;;;;;;;4998678;28;20044;-80
2022/06/14 15:09:17;;;;;;;5.95;2.88;;;;;;;;;;5002237;28;20038;-81
2022/06/14 15:11:51;;;;;;;5.50;2.90;;;;;;;;;;4999852;28;20026;-82
2022/06/14 15:14:23;;;;;;;5.13;2.70;;;;;;;;;;5000183;28;20113;-80
2022/06/14 15:19:54;;;;;;;5.25;2.60;;;;;;;;;;4999291;28;20052;-81
2022/06/14 15:19:54;;;;;;;5.68;2.70;;;;;;;;;;4999820;28;20034;-81
2022/06/14 15:22:23;;;;;;;4.75;2.50;;;;;;;;;;4999928;28;20031;-84
2022/06/14 15:24:50;;;;;;;4.22;2.33;;;;;;;;;;4998943;28;20486;-80
2022/06/14 15:27:17;;;;;;;5.90;2.80;;;;;;;;;;5000408;28;20066;-82
2022/06/14 15:29:50;;;;;;;4.22;2.53;;;;;;;;;;4998354;28;20030;-80
2022/06/14 15:32:27;;;;;;;5.28;2.65;;;;;;;;;;5000865;28;20034;-81
2022/06/14 15:34:54;;;;;;;5.90;2.80;;;;;;;;;;4998633;28;20037;-82
2022/06/14 15:37:26;;;;;;;4.55;2.67;;;;;;;;;;4999614;28;20033;-83
2022/06/14 15:40:00;;;;;;;4.82;2.60;;;;;;;;;;5001244;28;20584;-82